sensor_id;sensor_type;location;lat;lon;timestamp;P1;durP1;ratioP1;P2;durP2;ratioP2
58581;SDS011;44361;51.476;5.700;2023-07-13T00:02:14;10.50;;;1.80;;
58581;SDS011;44361;51.476;5.700;2023-07-13T00:04:40;5.18;;;1.77;;
58581;SDS011;44361;51.476;5.700;2023-07-13T00:07:06;6.85;;;1.45;;
58581;SDS011;44361;51.476;5.700;2023-07-13T00:09:32;6.45;;;1.50;;
58581;SDS011;44361;51.476;5.700;2023-07-13T00:11:58;5.07;;;1.17;;
58581;SDS011;44361;51.476;5.700;2023-07-13T00:14:25;5.43;;;1.42;;
58581;SDS011;44361;51.476;5.700;2023-07-13T00:16:52;4.93;;;1.52;;
58581;SDS011;44361;51.476;5.700;2023-07-13T00:19:18;8.50;;;2.20;;
58581;SDS011;44361;51.476;5.700;2023-07-13T00:21:44;7.78;;;2.33;;
58581;SDS011;44361;51.476;5.700;2023-07-13T00:24:11;10.93;;;2.15;;
58581;SDS011;44361;51.476;5.700;2023-07-13T00:26:38;9.05;;;2.05;;
58581;SDS011;44361;51.476;5.700;2023-07-13T00:29:05;5.25;;;1.90;;
58581;SDS011;44361;51.476;5.700;2023-07-13T00:31:33;4.40;;;1.55;;
58581;SDS011;44361;51.476;5.700;2023-07-13T00:33:59;8.98;;;1.75;;
58581;SDS011;44361;51.476;5.700;2023-07-13T00:36:25;5.95;;;1.50;;
58581;SDS011;44361;51.476;5.700;2023-07-13T00:38:51;4.97;;;1.42;;
58581;SDS011;44361;51.476;5.700;2023-07-13T00:41:18;7.90;;;1.73;;
58581;SDS011;44361;51.476;5.700;2023-07-13T00:43:44;7.85;;;1.42;;
58581;SDS011;44361;51.476;5.700;2023-07-13T00:46:11;10.63;;;2.05;;
58581;SDS011;44361;51.476;5.700;2023-07-13T00:48:50;9.57;;;1.85;;
58581;SDS011;44361;51.476;5.700;2023-07-13T00:51:19;5.47;;;1.75;;
58581;SDS011;44361;51.476;5.700;2023-07-13T00:53:48;9.15;;;1.55;;
58581;SDS011;44361;51.476;5.700;2023-07-13T00:56:15;9.13;;;1.70;;
58581;SDS011;44361;51.476;5.700;2023-07-13T00:58:41;6.80;;;1.45;;
58581;SDS011;44361;51.476;5.700;2023-07-13T01:01:07;5.13;;;1.58;;
58581;SDS011;44361;51.476;5.700;2023-07-13T01:03:33;6.07;;;1.65;;
58581;SDS011;44361;51.476;5.700;2023-07-13T01:06:00;8.23;;;1.70;;
58581;SDS011;44361;51.476;5.700;2023-07-13T01:08:26;6.35;;;2.22;;
58581;SDS011;44361;51.476;5.700;2023-07-13T01:10:55;7.97;;;2.10;;
58581;SDS011;44361;51.476;5.700;2023-07-13T01:13:23;8.68;;;1.63;;
58581;SDS011;44361;51.476;5.700;2023-07-13T01:15:49;7.78;;;1.83;;
58581;SDS011;44361;51.476;5.700;2023-07-13T01:18:26;8.23;;;2.15;;
58581;SDS011;44361;51.476;5.700;2023-07-13T01:21:00;6.15;;;2.40;;
58581;SDS011;44361;51.476;5.700;2023-07-13T01:23:27;6.75;;;1.60;;
58581;SDS011;44361;51.476;5.700;2023-07-13T01:25:55;9.30;;;2.22;;
58581;SDS011;44361;51.476;5.700;2023-07-13T01:28:22;15.63;;;2.53;;
58581;SDS011;44361;51.476;5.700;2023-07-13T01:30:52;13.35;;;2.67;;
58581;SDS011;44361;51.476;5.700;2023-07-13T01:33:18;9.15;;;2.28;;
58581;SDS011;44361;51.476;5.700;2023-07-13T01:35:44;5.93;;;1.98;;
58581;SDS011;44361;51.476;5.700;2023-07-13T01:38:11;8.82;;;2.00;;
58581;SDS011;44361;51.476;5.700;2023-07-13T01:40:39;4.65;;;1.40;;
58581;SDS011;44361;51.476;5.700;2023-07-13T01:43:05;4.15;;;1.60;;
58581;SDS011;44361;51.476;5.700;2023-07-13T01:45:31;7.80;;;2.13;;
58581;SDS011;44361;51.476;5.700;2023-07-13T01:47:56;8.13;;;1.85;;
58581;SDS011;44361;51.476;5.700;2023-07-13T01:50:23;12.80;;;1.73;;
58581;SDS011;44361;51.476;5.700;2023-07-13T01:52:49;8.02;;;1.90;;
58581;SDS011;44361;51.476;5.700;2023-07-13T01:55:14;5.65;;;2.00;;
58581;SDS011;44361;51.476;5.700;2023-07-13T01:57:40;9.18;;;2.15;;
58581;SDS011;44361;51.476;5.700;2023-07-13T02:00:06;4.70;;;1.92;;
58581;SDS011;44361;51.476;5.700;2023-07-13T02:02:34;10.60;;;2.17;;
58581;SDS011;44361;51.476;5.700;2023-07-13T02:04:59;7.13;;;2.00;;
58581;SDS011;44361;51.476;5.700;2023-07-13T02:07:25;7.10;;;2.40;;
58581;SDS011;44361;51.476;5.700;2023-07-13T02:09:51;5.65;;;2.10;;
58581;SDS011;44361;51.476;5.700;2023-07-13T02:12:16;8.75;;;2.10;;
58581;SDS011;44361;51.476;5.700;2023-07-13T02:14:42;6.28;;;1.67;;
58581;SDS011;44361;51.476;5.700;2023-07-13T02:17:09;6.32;;;1.63;;
58581;SDS011;44361;51.476;5.700;2023-07-13T02:19:35;6.38;;;1.90;;
58581;SDS011;44361;51.476;5.700;2023-07-13T02:22:01;9.07;;;1.92;;
58581;SDS011;44361;51.476;5.700;2023-07-13T02:24:27;10.18;;;2.38;;
58581;SDS011;44361;51.476;5.700;2023-07-13T02:26:52;8.77;;;1.98;;
58581;SDS011;44361;51.476;5.700;2023-07-13T02:29:18;9.32;;;2.20;;
58581;SDS011;44361;51.476;5.700;2023-07-13T02:31:44;10.48;;;2.10;;
58581;SDS011;44361;51.476;5.700;2023-07-13T02:34:09;8.52;;;2.40;;
58581;SDS011;44361;51.476;5.700;2023-07-13T02:36:35;9.20;;;2.45;;
58581;SDS011;44361;51.476;5.700;2023-07-13T02:39:01;10.55;;;1.83;;
58581;SDS011;44361;51.476;5.700;2023-07-13T02:41:28;6.38;;;1.92;;
58581;SDS011;44361;51.476;5.700;2023-07-13T02:43:54;8.70;;;2.13;;
58581;SDS011;44361;51.476;5.700;2023-07-13T02:46:27;10.52;;;1.88;;
58581;SDS011;44361;51.476;5.700;2023-07-13T02:48:53;8.07;;;2.00;;
58581;SDS011;44361;51.476;5.700;2023-07-13T02:51:19;9.90;;;1.95;;
58581;SDS011;44361;51.476;5.700;2023-07-13T02:53:45;8.57;;;2.08;;
58581;SDS011;44361;51.476;5.700;2023-07-13T02:56:10;11.40;;;2.22;;
58581;SDS011;44361;51.476;5.700;2023-07-13T02:58:36;9.10;;;2.10;;
58581;SDS011;44361;51.476;5.700;2023-07-13T03:01:05;10.50;;;2.22;;
58581;SDS011;44361;51.476;5.700;2023-07-13T03:03:32;9.00;;;2.58;;
58581;SDS011;44361;51.476;5.700;2023-07-13T03:05:59;6.75;;;2.10;;
58581;SDS011;44361;51.476;5.700;2023-07-13T03:08:27;3.97;;;1.73;;
58581;SDS011;44361;51.476;5.700;2023-07-13T03:10:59;8.00;;;1.63;;
58581;SDS011;44361;51.476;5.700;2023-07-13T03:13:30;7.47;;;2.13;;
58581;SDS011;44361;51.476;5.700;2023-07-13T03:15:56;13.68;;;2.13;;
58581;SDS011;44361;51.476;5.700;2023-07-13T03:18:22;11.50;;;2.30;;
58581;SDS011;44361;51.476;5.700;2023-07-13T03:20:50;8.25;;;2.35;;
58581;SDS011;44361;51.476;5.700;2023-07-13T03:23:17;11.88;;;2.75;;
58581;SDS011;44361;51.476;5.700;2023-07-13T03:25:42;8.63;;;2.45;;
58581;SDS011;44361;51.476;5.700;2023-07-13T03:28:09;10.98;;;2.78;;
58581;SDS011;44361;51.476;5.700;2023-07-13T03:30:34;8.95;;;2.53;;
58581;SDS011;44361;51.476;5.700;2023-07-13T03:33:00;10.02;;;2.67;;
58581;SDS011;44361;51.476;5.700;2023-07-13T03:35:25;9.63;;;2.05;;
58581;SDS011;44361;51.476;5.700;2023-07-13T03:37:51;9.90;;;2.53;;
58581;SDS011;44361;51.476;5.700;2023-07-13T03:40:17;10.52;;;3.00;;
58581;SDS011;44361;51.476;5.700;2023-07-13T03:42:42;10.48;;;2.97;;
58581;SDS011;44361;51.476;5.700;2023-07-13T03:45:08;18.40;;;3.88;;
58581;SDS011;44361;51.476;5.700;2023-07-13T03:47:34;11.98;;;2.42;;
58581;SDS011;44361;51.476;5.700;2023-07-13T03:49:59;6.22;;;2.78;;
58581;SDS011;44361;51.476;5.700;2023-07-13T03:52:25;9.07;;;2.55;;
58581;SDS011;44361;51.476;5.700;2023-07-13T03:54:50;12.65;;;2.75;;
58581;SDS011;44361;51.476;5.700;2023-07-13T03:57:16;9.60;;;2.63;;
58581;SDS011;44361;51.476;5.700;2023-07-13T03:59:42;10.45;;;2.78;;
58581;SDS011;44361;51.476;5.700;2023-07-13T04:02:07;5.30;;;2.40;;
58581;SDS011;44361;51.476;5.700;2023-07-13T04:04:33;11.13;;;2.63;;
58581;SDS011;44361;51.476;5.700;2023-07-13T04:06:59;8.63;;;2.25;;
58581;SDS011;44361;51.476;5.700;2023-07-13T04:09:25;10.38;;;2.40;;
58581;SDS011;44361;51.476;5.700;2023-07-13T04:11:50;7.03;;;2.30;;
58581;SDS011;44361;51.476;5.700;2023-07-13T04:14:16;8.18;;;2.17;;
58581;SDS011;44361;51.476;5.700;2023-07-13T04:16:42;5.15;;;2.22;;
58581;SDS011;44361;51.476;5.700;2023-07-13T04:19:08;8.05;;;2.60;;
58581;SDS011;44361;51.476;5.700;2023-07-13T04:21:35;11.73;;;2.83;;
58581;SDS011;44361;51.476;5.700;2023-07-13T04:24:02;10.05;;;3.10;;
58581;SDS011;44361;51.476;5.700;2023-07-13T04:26:28;8.05;;;3.55;;
58581;SDS011;44361;51.476;5.700;2023-07-13T04:28:54;11.43;;;3.13;;
58581;SDS011;44361;51.476;5.700;2023-07-13T04:31:21;13.00;;;3.72;;
58581;SDS011;44361;51.476;5.700;2023-07-13T04:33:47;11.73;;;3.60;;
58581;SDS011;44361;51.476;5.700;2023-07-13T04:36:13;14.60;;;4.05;;
58581;SDS011;44361;51.476;5.700;2023-07-13T04:38:40;15.00;;;3.60;;
58581;SDS011;44361;51.476;5.700;2023-07-13T04:41:06;12.77;;;3.83;;
58581;SDS011;44361;51.476;5.700;2023-07-13T04:43:33;11.95;;;3.08;;
58581;SDS011;44361;51.476;5.700;2023-07-13T04:46:06;11.10;;;3.25;;
58581;SDS011;44361;51.476;5.700;2023-07-13T04:48:34;15.50;;;3.90;;
58581;SDS011;44361;51.476;5.700;2023-07-13T04:51:00;13.88;;;3.33;;
58581;SDS011;44361;51.476;5.700;2023-07-13T04:53:27;12.85;;;3.67;;
58581;SDS011;44361;51.476;5.700;2023-07-13T04:55:53;9.63;;;2.83;;
58581;SDS011;44361;51.476;5.700;2023-07-13T04:58:18;9.63;;;2.95;;
58581;SDS011;44361;51.476;5.700;2023-07-13T05:00:44;11.32;;;3.10;;
58581;SDS011;44361;51.476;5.700;2023-07-13T05:03:10;9.65;;;3.20;;
58581;SDS011;44361;51.476;5.700;2023-07-13T05:05:35;9.27;;;3.45;;
58581;SDS011;44361;51.476;5.700;2023-07-13T05:08:01;12.23;;;4.00;;
58581;SDS011;44361;51.476;5.700;2023-07-13T05:10:27;9.68;;;3.20;;
58581;SDS011;44361;51.476;5.700;2023-07-13T05:12:53;14.35;;;3.47;;
58581;SDS011;44361;51.476;5.700;2023-07-13T05:15:20;16.75;;;3.55;;
58581;SDS011;44361;51.476;5.700;2023-07-13T05:17:47;13.77;;;3.67;;
58581;SDS011;44361;51.476;5.700;2023-07-13T05:20:13;12.15;;;3.88;;
58581;SDS011;44361;51.476;5.700;2023-07-13T05:22:40;13.95;;;4.25;;
58581;SDS011;44361;51.476;5.700;2023-07-13T05:25:06;11.82;;;3.72;;
58581;SDS011;44361;51.476;5.700;2023-07-13T05:27:32;11.23;;;3.42;;
58581;SDS011;44361;51.476;5.700;2023-07-13T05:29:58;13.23;;;4.05;;
58581;SDS011;44361;51.476;5.700;2023-07-13T05:32:24;9.63;;;3.30;;
58581;SDS011;44361;51.476;5.700;2023-07-13T05:34:49;16.55;;;4.28;;
58581;SDS011;44361;51.476;5.700;2023-07-13T05:37:15;11.35;;;4.00;;
58581;SDS011;44361;51.476;5.700;2023-07-13T05:39:40;18.50;;;4.90;;
58581;SDS011;44361;51.476;5.700;2023-07-13T05:42:06;15.23;;;4.63;;
58581;SDS011;44361;51.476;5.700;2023-07-13T05:44:32;12.15;;;4.03;;
58581;SDS011;44361;51.476;5.700;2023-07-13T05:46:57;11.23;;;4.25;;
58581;SDS011;44361;51.476;5.700;2023-07-13T05:49:23;15.23;;;4.25;;
58581;SDS011;44361;51.476;5.700;2023-07-13T05:51:49;14.45;;;4.60;;
58581;SDS011;44361;51.476;5.700;2023-07-13T05:54:15;14.23;;;4.93;;
58581;SDS011;44361;51.476;5.700;2023-07-13T05:56:40;22.17;;;5.72;;
58581;SDS011;44361;51.476;5.700;2023-07-13T05:59:06;15.65;;;4.43;;
58581;SDS011;44361;51.476;5.700;2023-07-13T06:01:32;15.38;;;4.70;;
58581;SDS011;44361;51.476;5.700;2023-07-13T06:03:57;18.20;;;5.63;;
58581;SDS011;44361;51.476;5.700;2023-07-13T06:06:23;16.67;;;5.55;;
58581;SDS011;44361;51.476;5.700;2023-07-13T06:08:49;13.80;;;4.90;;
58581;SDS011;44361;51.476;5.700;2023-07-13T06:11:18;15.35;;;4.43;;
58581;SDS011;44361;51.476;5.700;2023-07-13T06:13:46;19.75;;;5.60;;
58581;SDS011;44361;51.476;5.700;2023-07-13T06:16:12;18.58;;;4.25;;
58581;SDS011;44361;51.476;5.700;2023-07-13T06:18:39;13.60;;;4.57;;
58581;SDS011;44361;51.476;5.700;2023-07-13T06:21:12;17.13;;;4.57;;
58581;SDS011;44361;51.476;5.700;2023-07-13T06:23:39;18.55;;;4.72;;
58581;SDS011;44361;51.476;5.700;2023-07-13T06:26:05;18.55;;;5.03;;
58581;SDS011;44361;51.476;5.700;2023-07-13T06:28:32;15.57;;;3.92;;
58581;SDS011;44361;51.476;5.700;2023-07-13T06:30:59;14.73;;;4.88;;
58581;SDS011;44361;51.476;5.700;2023-07-13T06:33:25;14.30;;;4.53;;
58581;SDS011;44361;51.476;5.700;2023-07-13T06:35:51;19.42;;;4.80;;
58581;SDS011;44361;51.476;5.700;2023-07-13T06:38:17;16.13;;;4.68;;
58581;SDS011;44361;51.476;5.700;2023-07-13T06:40:42;12.45;;;4.60;;
58581;SDS011;44361;51.476;5.700;2023-07-13T06:43:08;15.15;;;4.53;;
58581;SDS011;44361;51.476;5.700;2023-07-13T06:45:36;12.68;;;4.38;;
58581;SDS011;44361;51.476;5.700;2023-07-13T06:48:06;14.23;;;4.65;;
58581;SDS011;44361;51.476;5.700;2023-07-13T06:50:33;18.08;;;4.85;;
58581;SDS011;44361;51.476;5.700;2023-07-13T06:52:59;16.52;;;5.45;;
58581;SDS011;44361;51.476;5.700;2023-07-13T06:55:25;16.40;;;5.60;;
58581;SDS011;44361;51.476;5.700;2023-07-13T06:57:51;14.38;;;4.88;;
58581;SDS011;44361;51.476;5.700;2023-07-13T07:00:16;17.33;;;5.13;;
58581;SDS011;44361;51.476;5.700;2023-07-13T07:02:42;15.45;;;5.13;;
58581;SDS011;44361;51.476;5.700;2023-07-13T07:05:08;12.75;;;5.72;;
58581;SDS011;44361;51.476;5.700;2023-07-13T07:07:34;17.75;;;4.93;;
58581;SDS011;44361;51.476;5.700;2023-07-13T07:09:59;13.82;;;5.30;;
58581;SDS011;44361;51.476;5.700;2023-07-13T07:12:25;11.98;;;4.88;;
58581;SDS011;44361;51.476;5.700;2023-07-13T07:14:50;15.43;;;4.88;;
58581;SDS011;44361;51.476;5.700;2023-07-13T07:17:16;18.92;;;4.60;;
58581;SDS011;44361;51.476;5.700;2023-07-13T07:19:42;15.98;;;4.88;;
58581;SDS011;44361;51.476;5.700;2023-07-13T07:22:07;13.52;;;5.25;;
58581;SDS011;44361;51.476;5.700;2023-07-13T07:24:33;20.10;;;4.95;;
58581;SDS011;44361;51.476;5.700;2023-07-13T07:26:58;21.33;;;4.93;;
58581;SDS011;44361;51.476;5.700;2023-07-13T07:29:24;11.15;;;4.47;;
58581;SDS011;44361;51.476;5.700;2023-07-13T07:31:51;14.95;;;4.60;;
58581;SDS011;44361;51.476;5.700;2023-07-13T07:34:17;18.42;;;5.00;;
58581;SDS011;44361;51.476;5.700;2023-07-13T07:36:42;17.55;;;4.78;;
58581;SDS011;44361;51.476;5.700;2023-07-13T07:39:08;22.00;;;4.22;;
58581;SDS011;44361;51.476;5.700;2023-07-13T07:41:34;16.95;;;4.22;;
58581;SDS011;44361;51.476;5.700;2023-07-13T07:43:59;10.77;;;4.03;;
58581;SDS011;44361;51.476;5.700;2023-07-13T07:46:25;13.60;;;4.10;;
58581;SDS011;44361;51.476;5.700;2023-07-13T07:48:51;15.90;;;3.65;;
58581;SDS011;44361;51.476;5.700;2023-07-13T07:51:16;16.60;;;4.13;;
58581;SDS011;44361;51.476;5.700;2023-07-13T07:53:42;9.93;;;3.97;;
58581;SDS011;44361;51.476;5.700;2023-07-13T07:56:07;11.18;;;3.75;;
58581;SDS011;44361;51.476;5.700;2023-07-13T07:58:35;18.30;;;4.22;;
58581;SDS011;44361;51.476;5.700;2023-07-13T08:01:06;12.88;;;3.65;;
58581;SDS011;44361;51.476;5.700;2023-07-13T08:03:32;13.30;;;4.22;;
58581;SDS011;44361;51.476;5.700;2023-07-13T08:05:58;13.48;;;4.00;;
58581;SDS011;44361;51.476;5.700;2023-07-13T08:08:23;11.30;;;3.90;;
58581;SDS011;44361;51.476;5.700;2023-07-13T08:10:49;14.50;;;3.88;;
58581;SDS011;44361;51.476;5.700;2023-07-13T08:13:15;9.65;;;3.88;;
58581;SDS011;44361;51.476;5.700;2023-07-13T08:15:40;11.15;;;3.58;;
58581;SDS011;44361;51.476;5.700;2023-07-13T08:18:06;9.88;;;3.42;;
58581;SDS011;44361;51.476;5.700;2023-07-13T08:20:36;14.40;;;3.63;;
58581;SDS011;44361;51.476;5.700;2023-07-13T08:23:03;11.35;;;3.28;;
58581;SDS011;44361;51.476;5.700;2023-07-13T08:25:29;9.32;;;3.15;;
58581;SDS011;44361;51.476;5.700;2023-07-13T08:27:54;12.75;;;3.08;;
58581;SDS011;44361;51.476;5.700;2023-07-13T08:30:20;11.40;;;3.55;;
58581;SDS011;44361;51.476;5.700;2023-07-13T08:32:46;9.50;;;3.10;;
58581;SDS011;44361;51.476;5.700;2023-07-13T08:35:11;14.85;;;3.03;;
58581;SDS011;44361;51.476;5.700;2023-07-13T08:37:38;8.50;;;3.13;;
58581;SDS011;44361;51.476;5.700;2023-07-13T08:40:04;13.57;;;3.53;;
58581;SDS011;44361;51.476;5.700;2023-07-13T08:42:38;9.95;;;3.10;;
58581;SDS011;44361;51.476;5.700;2023-07-13T08:45:08;11.13;;;2.70;;
58581;SDS011;44361;51.476;5.700;2023-07-13T08:47:54;13.45;;;2.80;;
58581;SDS011;44361;51.476;5.700;2023-07-13T08:50:26;10.30;;;2.80;;
58581;SDS011;44361;51.476;5.700;2023-07-13T08:52:56;7.45;;;2.60;;
58581;SDS011;44361;51.476;5.700;2023-07-13T08:55:27;7.53;;;3.40;;
58581;SDS011;44361;51.476;5.700;2023-07-13T08:58:19;9.02;;;2.42;;
58581;SDS011;44361;51.476;5.700;2023-07-13T09:04:14;6.65;;;2.58;;
58581;SDS011;44361;51.476;5.700;2023-07-13T09:09:47;11.52;;;2.50;;
58581;SDS011;44361;51.476;5.700;2023-07-13T09:18:25;9.50;;;2.33;;
58581;SDS011;44361;51.476;5.700;2023-07-13T09:23:42;11.32;;;2.70;;
58581;SDS011;44361;51.476;5.700;2023-07-13T09:26:18;10.25;;;2.45;;
58581;SDS011;44361;51.476;5.700;2023-07-13T09:28:50;9.00;;;2.28;;
58581;SDS011;44361;51.476;5.700;2023-07-13T09:33:49;9.45;;;2.03;;
58581;SDS011;44361;51.476;5.700;2023-07-13T09:36:28;6.22;;;1.70;;
58581;SDS011;44361;51.476;5.700;2023-07-13T09:44:35;6.80;;;2.03;;
58581;SDS011;44361;51.476;5.700;2023-07-13T09:47:03;6.72;;;1.90;;
58581;SDS011;44361;51.476;5.700;2023-07-13T09:49:41;11.38;;;2.08;;
58581;SDS011;44361;51.476;5.700;2023-07-13T09:52:10;9.68;;;2.22;;
58581;SDS011;44361;51.476;5.700;2023-07-13T09:54:39;12.38;;;2.00;;
58581;SDS011;44361;51.476;5.700;2023-07-13T09:57:13;7.10;;;2.10;;
58581;SDS011;44361;51.476;5.700;2023-07-13T09:59:43;9.30;;;1.48;;
58581;SDS011;44361;51.476;5.700;2023-07-13T10:02:49;7.57;;;1.83;;
58581;SDS011;44361;51.476;5.700;2023-07-13T10:05:09;8.13;;;1.58;;
58581;SDS011;44361;51.476;5.700;2023-07-13T10:07:39;7.13;;;2.03;;
58581;SDS011;44361;51.476;5.700;2023-07-13T10:10:20;6.22;;;1.55;;
58581;SDS011;44361;51.476;5.700;2023-07-13T10:12:47;6.57;;;1.90;;
58581;SDS011;44361;51.476;5.700;2023-07-13T10:15:15;9.93;;;2.20;;
58581;SDS011;44361;51.476;5.700;2023-07-13T10:17:44;6.35;;;1.98;;
58581;SDS011;44361;51.476;5.700;2023-07-13T10:20:10;8.55;;;2.05;;
58581;SDS011;44361;51.476;5.700;2023-07-13T10:25:31;5.30;;;1.65;;
58581;SDS011;44361;51.476;5.700;2023-07-13T10:28:41;6.18;;;1.85;;
58581;SDS011;44361;51.476;5.700;2023-07-13T10:30:52;6.20;;;1.52;;
58581;SDS011;44361;51.476;5.700;2023-07-13T10:33:21;6.93;;;2.17;;
58581;SDS011;44361;51.476;5.700;2023-07-13T10:35:47;7.05;;;1.70;;
58581;SDS011;44361;51.476;5.700;2023-07-13T10:38:20;8.70;;;1.45;;
58581;SDS011;44361;51.476;5.700;2023-07-13T10:40:54;4.93;;;1.45;;
58581;SDS011;44361;51.476;5.700;2023-07-13T10:43:36;7.10;;;1.73;;
58581;SDS011;44361;51.476;5.700;2023-07-13T10:46:07;8.13;;;2.10;;
58581;SDS011;44361;51.476;5.700;2023-07-13T10:48:35;10.20;;;1.77;;
58581;SDS011;44361;51.476;5.700;2023-07-13T10:51:03;7.55;;;1.60;;
58581;SDS011;44361;51.476;5.700;2023-07-13T10:53:33;7.07;;;1.52;;
58581;SDS011;44361;51.476;5.700;2023-07-13T10:56:02;8.65;;;1.50;;
58581;SDS011;44361;51.476;5.700;2023-07-13T10:58:41;4.65;;;1.50;;
58581;SDS011;44361;51.476;5.700;2023-07-13T11:01:09;9.07;;;1.70;;
58581;SDS011;44361;51.476;5.700;2023-07-13T11:18:44;7.95;;;2.30;;
58581;SDS011;44361;51.476;5.700;2023-07-13T11:21:13;7.18;;;1.60;;
58581;SDS011;44361;51.476;5.700;2023-07-13T11:24:19;6.82;;;1.88;;
58581;SDS011;44361;51.476;5.700;2023-07-13T11:29:23;9.50;;;2.97;;
58581;SDS011;44361;51.476;5.700;2023-07-13T11:31:59;6.47;;;2.08;;
58581;SDS011;44361;51.476;5.700;2023-07-13T11:34:45;4.32;;;1.85;;
58581;SDS011;44361;51.476;5.700;2023-07-13T11:37:12;9.35;;;1.90;;
58581;SDS011;44361;51.476;5.700;2023-07-13T11:39:42;6.32;;;1.80;;
58581;SDS011;44361;51.476;5.700;2023-07-13T11:42:10;8.60;;;2.20;;
58581;SDS011;44361;51.476;5.700;2023-07-13T11:44:42;6.10;;;2.20;;
58581;SDS011;44361;51.476;5.700;2023-07-13T11:47:10;8.27;;;1.60;;
58581;SDS011;44361;51.476;5.700;2023-07-13T11:49:44;6.05;;;2.20;;
58581;SDS011;44361;51.476;5.700;2023-07-13T11:52:13;5.57;;;2.00;;
58581;SDS011;44361;51.476;5.700;2023-07-13T11:54:48;8.18;;;2.03;;
58581;SDS011;44361;51.476;5.700;2023-07-13T11:57:23;6.70;;;1.77;;
58581;SDS011;44361;51.476;5.700;2023-07-13T11:59:51;5.57;;;1.77;;
58581;SDS011;44361;51.476;5.700;2023-07-13T12:04:56;4.93;;;1.88;;
58581;SDS011;44361;51.476;5.700;2023-07-13T12:07:23;6.50;;;2.17;;
58581;SDS011;44361;51.476;5.700;2023-07-13T12:09:49;6.63;;;1.65;;
58581;SDS011;44361;51.476;5.700;2023-07-13T12:12:19;6.68;;;1.90;;
58581;SDS011;44361;51.476;5.700;2023-07-13T12:14:46;4.20;;;1.40;;
58581;SDS011;44361;51.476;5.700;2023-07-13T12:17:22;4.68;;;1.70;;
58581;SDS011;44361;51.476;5.700;2023-07-13T12:19:50;12.25;;;1.80;;
58581;SDS011;44361;51.476;5.700;2023-07-13T12:22:17;5.32;;;2.17;;
58581;SDS011;44361;51.476;5.700;2023-07-13T12:24:45;4.78;;;1.67;;
58581;SDS011;44361;51.476;5.700;2023-07-13T12:27:30;5.78;;;1.95;;
58581;SDS011;44361;51.476;5.700;2023-07-13T12:32:30;11.13;;;2.10;;
58581;SDS011;44361;51.476;5.700;2023-07-13T12:35:15;5.72;;;1.80;;
58581;SDS011;44361;51.476;5.700;2023-07-13T12:37:47;6.50;;;2.58;;
58581;SDS011;44361;51.476;5.700;2023-07-13T12:40:14;9.20;;;2.90;;
58581;SDS011;44361;51.476;5.700;2023-07-13T12:42:43;8.55;;;2.35;;
58581;SDS011;44361;51.476;5.700;2023-07-13T12:47:57;12.52;;;3.08;;
58581;SDS011;44361;51.476;5.700;2023-07-13T12:50:33;6.35;;;2.15;;
58581;SDS011;44361;51.476;5.700;2023-07-13T12:53:06;7.95;;;2.42;;
58581;SDS011;44361;51.476;5.700;2023-07-13T12:55:43;4.47;;;2.10;;
58581;SDS011;44361;51.476;5.700;2023-07-13T12:58:20;9.60;;;2.90;;
58581;SDS011;44361;51.476;5.700;2023-07-13T13:00:50;6.45;;;3.50;;
58581;SDS011;44361;51.476;5.700;2023-07-13T13:06:20;6.53;;;2.30;;
58581;SDS011;44361;51.476;5.700;2023-07-13T13:08:58;8.07;;;3.08;;
58581;SDS011;44361;51.476;5.700;2023-07-13T13:11:25;7.25;;;2.65;;
58581;SDS011;44361;51.476;5.700;2023-07-13T13:13:52;4.38;;;1.80;;
58581;SDS011;44361;51.476;5.700;2023-07-13T13:19:15;2.17;;;1.15;;
58581;SDS011;44361;51.476;5.700;2023-07-13T13:21:47;2.92;;;1.48;;
58581;SDS011;44361;51.476;5.700;2023-07-13T13:24:17;6.32;;;1.27;;
58581;SDS011;44361;51.476;5.700;2023-07-13T13:26:45;5.05;;;1.20;;
58581;SDS011;44361;51.476;5.700;2023-07-13T13:29:14;4.90;;;1.20;;
58581;SDS011;44361;51.476;5.700;2023-07-13T13:31:42;3.30;;;1.05;;
58581;SDS011;44361;51.476;5.700;2023-07-13T13:34:13;2.92;;;1.65;;
58581;SDS011;44361;51.476;5.700;2023-07-13T13:36:42;5.43;;;1.25;;
58581;SDS011;44361;51.476;5.700;2023-07-13T13:39:25;7.75;;;1.30;;
58581;SDS011;44361;51.476;5.700;2023-07-13T13:41:59;5.53;;;1.95;;
58581;SDS011;44361;51.476;5.700;2023-07-13T13:44:24;7.03;;;1.90;;
58581;SDS011;44361;51.476;5.700;2023-07-13T13:46:51;6.05;;;1.65;;
58581;SDS011;44361;51.476;5.700;2023-07-13T13:49:20;9.30;;;2.38;;
58581;SDS011;44361;51.476;5.700;2023-07-13T13:51:49;5.30;;;2.17;;
58581;SDS011;44361;51.476;5.700;2023-07-13T13:54:16;4.40;;;2.47;;
58581;SDS011;44361;51.476;5.700;2023-07-13T13:56:44;9.02;;;2.90;;
58581;SDS011;44361;51.476;5.700;2023-07-13T13:59:12;5.35;;;2.60;;
58581;SDS011;44361;51.476;5.700;2023-07-13T14:01:39;6.55;;;2.53;;
58581;SDS011;44361;51.476;5.700;2023-07-13T14:04:06;5.57;;;2.65;;
58581;SDS011;44361;51.476;5.700;2023-07-13T14:06:44;8.82;;;2.65;;
58581;SDS011;44361;51.476;5.700;2023-07-13T14:09:11;5.45;;;2.50;;
58581;SDS011;44361;51.476;5.700;2023-07-13T14:11:38;4.82;;;2.10;;
58581;SDS011;44361;51.476;5.700;2023-07-13T14:14:08;7.05;;;2.47;;
58581;SDS011;44361;51.476;5.700;2023-07-13T14:16:58;7.07;;;1.98;;
58581;SDS011;44361;51.476;5.700;2023-07-13T14:19:24;5.13;;;1.83;;
58581;SDS011;44361;51.476;5.700;2023-07-13T14:21:52;6.82;;;2.00;;
58581;SDS011;44361;51.476;5.700;2023-07-13T14:24:18;7.03;;;1.88;;
58581;SDS011;44361;51.476;5.700;2023-07-13T14:26:46;3.78;;;1.85;;
58581;SDS011;44361;51.476;5.700;2023-07-13T14:29:13;4.95;;;1.70;;
58581;SDS011;44361;51.476;5.700;2023-07-13T14:31:44;5.03;;;1.63;;
58581;SDS011;44361;51.476;5.700;2023-07-13T14:34:10;6.03;;;2.05;;
58581;SDS011;44361;51.476;5.700;2023-07-13T14:36:38;4.03;;;1.65;;
58581;SDS011;44361;51.476;5.700;2023-07-13T14:39:19;7.03;;;1.80;;
58581;SDS011;44361;51.476;5.700;2023-07-13T14:41:49;7.38;;;1.63;;
58581;SDS011;44361;51.476;5.700;2023-07-13T14:44:16;4.53;;;1.60;;
58581;SDS011;44361;51.476;5.700;2023-07-13T14:46:45;5.85;;;1.65;;
58581;SDS011;44361;51.476;5.700;2023-07-13T14:49:19;3.47;;;1.40;;
58581;SDS011;44361;51.476;5.700;2023-07-13T14:51:50;3.17;;;1.58;;
58581;SDS011;44361;51.476;5.700;2023-07-13T14:54:16;2.85;;;1.20;;
58581;SDS011;44361;51.476;5.700;2023-07-13T14:56:41;4.65;;;1.70;;
58581;SDS011;44361;51.476;5.700;2023-07-13T14:59:07;3.25;;;1.23;;
58581;SDS011;44361;51.476;5.700;2023-07-13T15:01:34;4.50;;;1.50;;
58581;SDS011;44361;51.476;5.700;2023-07-13T15:04:00;4.28;;;1.48;;
58581;SDS011;44361;51.476;5.700;2023-07-13T15:06:27;3.08;;;1.00;;
58581;SDS011;44361;51.476;5.700;2023-07-13T15:08:53;3.20;;;1.02;;
58581;SDS011;44361;51.476;5.700;2023-07-13T15:11:20;2.63;;;1.02;;
58581;SDS011;44361;51.476;5.700;2023-07-13T15:13:46;3.42;;;1.25;;
58581;SDS011;44361;51.476;5.700;2023-07-13T15:16:14;1.35;;;0.77;;
58581;SDS011;44361;51.476;5.700;2023-07-13T15:18:51;1.33;;;0.98;;
58581;SDS011;44361;51.476;5.700;2023-07-13T15:21:20;3.05;;;1.30;;
58581;SDS011;44361;51.476;5.700;2023-07-13T15:23:49;5.40;;;1.00;;
58581;SDS011;44361;51.476;5.700;2023-07-13T15:26:16;2.70;;;1.08;;
58581;SDS011;44361;51.476;5.700;2023-07-13T15:28:43;2.03;;;1.00;;
58581;SDS011;44361;51.476;5.700;2023-07-13T15:31:20;2.75;;;1.05;;
58581;SDS011;44361;51.476;5.700;2023-07-13T15:33:48;3.17;;;1.02;;
58581;SDS011;44361;51.476;5.700;2023-07-13T15:36:16;1.83;;;1.08;;
58581;SDS011;44361;51.476;5.700;2023-07-13T15:38:43;3.25;;;0.80;;
58581;SDS011;44361;51.476;5.700;2023-07-13T15:41:15;2.50;;;1.10;;
58581;SDS011;44361;51.476;5.700;2023-07-13T15:43:43;3.47;;;1.17;;
58581;SDS011;44361;51.476;5.700;2023-07-13T15:46:09;4.30;;;1.63;;
58581;SDS011;44361;51.476;5.700;2023-07-13T15:48:35;3.05;;;1.20;;